createdAt,value
2017-07-07T00:12:42.000Z,66.4
2017-07-07T00:29:33.000Z,66.4
2017-07-07T00:46:24.000Z,66
2017-07-07T01:03:16.000Z,66
2017-07-07T01:20:06.000Z,66
2017-07-07T01:36:57.000Z,66
2017-07-07T01:53:48.000Z,65.6
2017-07-07T02:10:38.000Z,66
2017-07-07T02:27:28.000Z,66
2017-07-07T02:44:19.000Z,66.8
2017-07-07T03:01:10.000Z,66.8
2017-07-07T03:18:00.000Z,66.8
2017-07-07T03:34:50.000Z,66.8
2017-07-07T03:51:41.000Z,66.8
2017-07-07T04:25:21.000Z,66.8
2017-07-07T04:42:12.000Z,66.4
2017-07-07T04:59:02.000Z,66.4
2017-07-07T05:15:53.000Z,66
2017-07-07T05:32:44.000Z,66
2017-07-07T05:49:36.000Z,65.6
2017-07-07T06:06:27.000Z,65.6
2017-07-07T06:18:15.000Z,65.2
2017-07-07T06:35:07.000Z,64
2017-07-07T06:51:59.000Z,64.4
2017-07-07T07:08:53.000Z,64
2017-07-07T07:25:46.000Z,64
2017-07-07T07:42:38.000Z,65.2
2017-07-07T07:59:32.000Z,64.8
2017-07-07T08:16:24.000Z,64.4
2017-07-07T08:33:17.000Z,64
2017-07-07T08:50:11.000Z,63.6
2017-07-07T09:07:05.000Z,63.2
2017-07-07T09:23:58.000Z,63.2
2017-07-07T09:40:52.000Z,62.8
2017-07-07T09:57:46.000Z,62.4
2017-07-07T10:14:40.000Z,62.4
2017-07-07T10:31:34.000Z,62.4
2017-07-07T10:48:28.000Z,62.8
2017-07-07T11:05:23.000Z,62.4
2017-07-07T11:22:17.000Z,62
2017-07-07T11:39:12.000Z,62.4
2017-07-07T11:56:07.000Z,62
2017-07-07T12:13:02.000Z,61.2
2017-07-07T12:29:57.000Z,62
2017-07-07T12:46:52.000Z,61.2
2017-07-07T13:03:48.000Z,61.2
2017-07-07T13:20:42.000Z,60.8
2017-07-07T13:37:38.000Z,60.8
2017-07-07T13:54:33.000Z,60.4
2017-07-07T14:11:29.000Z,60
2017-07-07T14:28:24.000Z,60
2017-07-07T14:45:20.000Z,59.6
2017-07-07T15:02:15.000Z,60
2017-07-07T15:19:10.000Z,60
2017-07-07T15:36:06.000Z,61.6
2017-07-07T15:53:00.000Z,62.4
2017-07-07T16:09:55.000Z,62.8
2017-07-07T16:26:50.000Z,62.8
2017-07-07T16:43:45.000Z,62
2017-07-07T17:00:39.000Z,63.2
2017-07-07T17:17:33.000Z,63.6
2017-07-07T17:34:28.000Z,63.6
2017-07-07T17:51:23.000Z,64
2017-07-07T18:08:17.000Z,64
2017-07-07T18:25:11.000Z,64.4
2017-07-07T18:42:05.000Z,64.8
2017-07-07T18:58:59.000Z,65.6
2017-07-07T19:15:53.000Z,66
2017-07-07T19:32:46.000Z,66.4
2017-07-07T19:49:40.000Z,66.8
2017-07-07T20:06:34.000Z,66.8
2017-07-07T20:23:27.000Z,67.2
2017-07-07T20:40:21.000Z,67.2
2017-07-07T20:57:14.000Z,66.8
2017-07-07T21:14:07.000Z,66.8
2017-07-07T21:30:59.000Z,66.8
2017-07-07T21:47:53.000Z,66.4
2017-07-07T22:04:45.000Z,66.8
2017-07-07T22:18:15.000Z,66.8
2017-07-07T22:35:07.000Z,67.6
2017-07-07T22:51:57.000Z,68
2017-07-07T23:08:48.000Z,68.4
2017-07-07T23:25:39.000Z,68.4
2017-07-07T23:42:31.000Z,67.6
2017-07-07T23:59:22.000Z,67.2
